sensor_id;sensor_type;location;lat;lon;timestamp;noise_LAeq;noise_LA_min;noise_LA_max;noise_LA01;noise_LA95
58303;Laerm;44109;52.398;7.024;2022-12-29T00:00:59;51.21;39.54;64.05;;
58303;Laerm;44109;52.398;7.024;2022-12-29T00:03:28;49.56;38.84;61.40;;
58303;Laerm;44109;52.398;7.024;2022-12-29T00:05:57;47.88;36.93;57.63;;
58303;Laerm;44109;52.398;7.024;2022-12-29T00:08:24;51.20;39.02;66.66;;
58303;Laerm;44109;52.398;7.024;2022-12-29T00:11:06;49.27;37.99;62.35;;
58303;Laerm;44109;52.398;7.024;2022-12-29T00:13:34;49.19;36.36;66.30;;
58303;Laerm;44109;52.398;7.024;2022-12-29T00:16:19;49.98;38.06;66.91;;
58303;Laerm;44109;52.398;7.024;2022-12-29T00:18:49;51.12;40.00;64.88;;
58303;Laerm;44109;52.398;7.024;2022-12-29T00:21:20;49.64;38.89;64.73;;
58303;Laerm;44109;52.398;7.024;2022-12-29T00:24:08;49.08;36.73;60.17;;
58303;Laerm;44109;52.398;7.024;2022-12-29T00:26:59;50.34;37.22;68.15;;
58303;Laerm;44109;52.398;7.024;2022-12-29T00:29:53;49.64;37.15;62.25;;
58303;Laerm;44109;52.398;7.024;2022-12-29T00:32:38;47.97;37.56;58.06;;
58303;Laerm;44109;52.398;7.024;2022-12-29T00:35:29;52.53;38.40;67.16;;
58303;Laerm;44109;52.398;7.024;2022-12-29T00:38:02;50.64;42.10;66.56;;
58303;Laerm;44109;52.398;7.024;2022-12-29T00:40:48;49.24;36.58;60.24;;
58303;Laerm;44109;52.398;7.024;2022-12-29T00:43:34;49.98;37.96;65.06;;
58303;Laerm;44109;52.398;7.024;2022-12-29T00:46:19;51.13;37.84;67.56;;
58303;Laerm;44109;52.398;7.024;2022-12-29T00:48:46;48.61;38.45;58.07;;
58303;Laerm;44109;52.398;7.024;2022-12-29T00:51:33;48.73;37.04;60.73;;
58303;Laerm;44109;52.398;7.024;2022-12-29T00:54:01;49.82;38.78;60.03;;
58303;Laerm;44109;52.398;7.024;2022-12-29T00:56:28;50.91;39.42;61.81;;
58303;Laerm;44109;52.398;7.024;2022-12-29T00:59:00;50.61;37.33;59.36;;
58303;Laerm;44109;52.398;7.024;2022-12-29T01:01:28;52.16;40.46;67.30;;
58303;Laerm;44109;52.398;7.024;2022-12-29T01:03:56;51.25;39.41;68.75;;
58303;Laerm;44109;52.398;7.024;2022-12-29T01:06:24;51.65;41.22;66.87;;
58303;Laerm;44109;52.398;7.024;2022-12-29T01:08:53;51.01;37.93;60.42;;
58303;Laerm;44109;52.398;7.024;2022-12-29T01:11:34;49.50;39.05;58.44;;
58303;Laerm;44109;52.398;7.024;2022-12-29T01:14:02;49.33;37.21;64.36;;
58303;Laerm;44109;52.398;7.024;2022-12-29T01:16:30;47.93;37.05;58.62;;
58303;Laerm;44109;52.398;7.024;2022-12-29T01:18:58;48.65;36.84;57.93;;
58303;Laerm;44109;52.398;7.024;2022-12-29T01:21:26;51.79;39.37;67.75;;
58303;Laerm;44109;52.398;7.024;2022-12-29T01:23:55;49.38;39.02;77.03;;
58303;Laerm;44109;52.398;7.024;2022-12-29T01:26:23;50.01;38.36;63.71;;
58303;Laerm;44109;52.398;7.024;2022-12-29T01:28:51;50.11;37.50;77.52;;
58303;Laerm;44109;52.398;7.024;2022-12-29T01:31:18;52.84;38.34;74.81;;
58303;Laerm;44109;52.398;7.024;2022-12-29T01:33:49;51.05;37.16;65.55;;
58303;Laerm;44109;52.398;7.024;2022-12-29T01:36:18;52.85;36.41;85.04;;
58303;Laerm;44109;52.398;7.024;2022-12-29T01:38:46;50.64;39.00;66.22;;
58303;Laerm;44109;52.398;7.024;2022-12-29T01:41:16;49.08;37.07;58.06;;
58303;Laerm;44109;52.398;7.024;2022-12-29T01:43:47;50.54;37.73;60.17;;
58303;Laerm;44109;52.398;7.024;2022-12-29T01:46:23;48.13;35.14;57.86;;
58303;Laerm;44109;52.398;7.024;2022-12-29T01:48:59;49.40;36.50;74.65;;
58303;Laerm;44109;52.398;7.024;2022-12-29T01:51:33;49.06;37.79;67.27;;
58303;Laerm;44109;52.398;7.024;2022-12-29T01:54:08;47.76;36.83;62.60;;
58303;Laerm;44109;52.398;7.024;2022-12-29T01:56:43;50.28;36.07;65.33;;
58303;Laerm;44109;52.398;7.024;2022-12-29T01:59:19;48.19;36.75;57.40;;
58303;Laerm;44109;52.398;7.024;2022-12-29T02:01:49;48.56;37.82;57.89;;
58303;Laerm;44109;52.398;7.024;2022-12-29T02:04:18;48.60;38.32;57.89;;
58303;Laerm;44109;52.398;7.024;2022-12-29T02:06:51;49.16;37.94;58.68;;
58303;Laerm;44109;52.398;7.024;2022-12-29T02:09:21;50.02;39.07;62.09;;
58303;Laerm;44109;52.398;7.024;2022-12-29T02:11:51;49.15;37.63;58.14;;
58303;Laerm;44109;52.398;7.024;2022-12-29T02:14:19;50.88;36.96;65.11;;
58303;Laerm;44109;52.398;7.024;2022-12-29T02:17:03;48.56;37.49;62.33;;
58303;Laerm;44109;52.398;7.024;2022-12-29T02:20:11;48.14;37.50;62.79;;
58303;Laerm;44109;52.398;7.024;2022-12-29T02:23:08;47.71;35.84;57.46;;
58303;Laerm;44109;52.398;7.024;2022-12-29T02:26:16;48.51;35.69;68.39;;
58303;Laerm;44109;52.398;7.024;2022-12-29T02:29:37;46.13;34.11;57.12;;
58303;Laerm;44109;52.398;7.024;2022-12-29T02:32:19;48.17;35.19;57.43;;
58303;Laerm;44109;52.398;7.024;2022-12-29T02:35:01;47.20;35.32;57.10;;
58303;Laerm;44109;52.398;7.024;2022-12-29T02:37:48;48.96;36.03;58.11;;
58303;Laerm;44109;52.398;7.024;2022-12-29T02:40:25;47.59;36.75;56.95;;
58303;Laerm;44109;52.398;7.024;2022-12-29T02:43:04;49.24;36.30;63.83;;
58303;Laerm;44109;52.398;7.024;2022-12-29T02:45:47;47.28;36.47;57.37;;
58303;Laerm;44109;52.398;7.024;2022-12-29T02:48:25;47.25;35.68;56.92;;
58303;Laerm;44109;52.398;7.024;2022-12-29T02:51:03;48.69;38.63;59.47;;
58303;Laerm;44109;52.398;7.024;2022-12-29T02:53:34;49.25;39.58;61.89;;
58303;Laerm;44109;52.398;7.024;2022-12-29T02:56:21;50.82;38.84;65.54;;
58303;Laerm;44109;52.398;7.024;2022-12-29T02:58:48;50.54;37.80;64.79;;
58303;Laerm;44109;52.398;7.024;2022-12-29T03:01:33;51.01;40.20;66.81;;
58303;Laerm;44109;52.398;7.024;2022-12-29T03:04:21;51.17;40.38;63.18;;
58303;Laerm;44109;52.398;7.024;2022-12-29T03:07:09;50.11;38.73;59.68;;
58303;Laerm;44109;52.398;7.024;2022-12-29T03:09:51;48.64;37.90;58.76;;
58303;Laerm;44109;52.398;7.024;2022-12-29T03:12:29;49.95;39.27;63.19;;
58303;Laerm;44109;52.398;7.024;2022-12-29T03:15:22;50.12;37.85;68.22;;
58303;Laerm;44109;52.398;7.024;2022-12-29T03:18:15;47.58;37.19;59.90;;
58303;Laerm;44109;52.398;7.024;2022-12-29T03:20:53;50.28;40.21;62.11;;
58303;Laerm;44109;52.398;7.024;2022-12-29T03:23:25;54.61;39.86;78.87;;
58303;Laerm;44109;52.398;7.024;2022-12-29T03:25:58;59.45;43.94;82.34;;
58303;Laerm;44109;52.398;7.024;2022-12-29T03:28:36;59.15;43.13;93.41;;
58303;Laerm;44109;52.398;7.024;2022-12-29T03:31:08;57.46;39.75;77.92;;
58303;Laerm;44109;52.398;7.024;2022-12-29T03:33:39;60.95;38.60;80.15;;
58303;Laerm;44109;52.398;7.024;2022-12-29T03:36:25;59.13;38.85;83.74;;
58303;Laerm;44109;52.398;7.024;2022-12-29T03:39:02;48.28;35.92;68.04;;
58303;Laerm;44109;52.398;7.024;2022-12-29T03:41:33;49.36;35.42;68.82;;
58303;Laerm;44109;52.398;7.024;2022-12-29T03:44:01;49.47;35.47;73.30;;
58303;Laerm;44109;52.398;7.024;2022-12-29T03:46:29;49.59;34.70;69.67;;
58303;Laerm;44109;52.398;7.024;2022-12-29T03:48:57;48.63;36.01;68.62;;
58303;Laerm;44109;52.398;7.024;2022-12-29T03:51:26;48.32;35.11;68.10;;
58303;Laerm;44109;52.398;7.024;2022-12-29T03:53:53;54.08;38.01;80.05;;
58303;Laerm;44109;52.398;7.024;2022-12-29T03:56:21;56.27;39.76;82.49;;
58303;Laerm;44109;52.398;7.024;2022-12-29T03:58:50;50.48;38.34;71.48;;
58303;Laerm;44109;52.398;7.024;2022-12-29T04:01:18;54.64;37.34;78.03;;
58303;Laerm;44109;52.398;7.024;2022-12-29T04:03:46;54.22;37.95;75.13;;
58303;Laerm;44109;52.398;7.024;2022-12-29T04:06:13;58.80;38.66;77.42;;
58303;Laerm;44109;52.398;7.024;2022-12-29T04:08:42;66.26;48.13;89.65;;
58303;Laerm;44109;52.398;7.024;2022-12-29T04:11:10;64.34;44.64;83.12;;
58303;Laerm;44109;52.398;7.024;2022-12-29T04:13:37;70.50;51.41;90.76;;
58303;Laerm;44109;52.398;7.024;2022-12-29T04:16:07;65.68;47.89;84.19;;
58303;Laerm;44109;52.398;7.024;2022-12-29T04:18:35;63.25;45.98;87.72;;
58303;Laerm;44109;52.398;7.024;2022-12-29T04:21:03;62.23;41.88;86.36;;
58303;Laerm;44109;52.398;7.024;2022-12-29T04:23:34;49.53;37.81;67.59;;
58303;Laerm;44109;52.398;7.024;2022-12-29T04:26:05;48.74;35.62;70.37;;
58303;Laerm;44109;52.398;7.024;2022-12-29T04:28:33;47.66;34.04;65.67;;
58303;Laerm;44109;52.398;7.024;2022-12-29T04:31:01;47.76;34.84;61.90;;
58303;Laerm;44109;52.398;7.024;2022-12-29T04:33:29;47.30;34.02;57.20;;
58303;Laerm;44109;52.398;7.024;2022-12-29T04:35:57;48.07;34.49;59.96;;
58303;Laerm;44109;52.398;7.024;2022-12-29T04:38:25;48.21;36.13;66.00;;
58303;Laerm;44109;52.398;7.024;2022-12-29T04:40:53;47.44;33.47;60.13;;
58303;Laerm;44109;52.398;7.024;2022-12-29T04:43:21;47.92;34.12;66.06;;
58303;Laerm;44109;52.398;7.024;2022-12-29T04:45:49;50.18;35.90;68.95;;
58303;Laerm;44109;52.398;7.024;2022-12-29T04:48:17;52.31;40.63;65.35;;
58303;Laerm;44109;52.398;7.024;2022-12-29T04:50:48;52.84;43.19;62.02;;
58303;Laerm;44109;52.398;7.024;2022-12-29T04:53:17;51.46;39.15;60.63;;
58303;Laerm;44109;52.398;7.024;2022-12-29T04:55:49;47.94;35.93;57.52;;
58303;Laerm;44109;52.398;7.024;2022-12-29T04:58:17;48.58;38.55;58.11;;
58303;Laerm;44109;52.398;7.024;2022-12-29T05:00:46;48.83;35.94;58.63;;
58303;Laerm;44109;52.398;7.024;2022-12-29T05:03:14;47.73;36.20;57.43;;
58303;Laerm;44109;52.398;7.024;2022-12-29T05:05:41;47.61;34.45;57.10;;
58303;Laerm;44109;52.398;7.024;2022-12-29T05:08:09;48.01;34.58;57.80;;
58303;Laerm;44109;52.398;7.024;2022-12-29T05:10:37;49.70;36.91;57.99;;
58303;Laerm;44109;52.398;7.024;2022-12-29T05:13:04;48.84;35.25;64.35;;
58303;Laerm;44109;52.398;7.024;2022-12-29T05:15:32;48.04;35.65;57.32;;
58303;Laerm;44109;52.398;7.024;2022-12-29T05:18:01;47.84;34.78;57.37;;
58303;Laerm;44109;52.398;7.024;2022-12-29T05:20:29;47.67;34.06;57.88;;
58303;Laerm;44109;52.398;7.024;2022-12-29T05:22:56;50.44;35.06;64.92;;
58303;Laerm;44109;52.398;7.024;2022-12-29T05:25:25;50.12;39.83;59.36;;
58303;Laerm;44109;52.398;7.024;2022-12-29T05:27:53;48.06;36.28;60.91;;
58303;Laerm;44109;52.398;7.024;2022-12-29T05:30:21;48.84;35.73;61.56;;
58303;Laerm;44109;52.398;7.024;2022-12-29T05:32:49;48.16;36.61;60.71;;
58303;Laerm;44109;52.398;7.024;2022-12-29T05:35:18;48.82;38.19;63.47;;
58303;Laerm;44109;52.398;7.024;2022-12-29T05:37:45;50.02;36.55;73.70;;
58303;Laerm;44109;52.398;7.024;2022-12-29T05:40:13;49.31;38.22;58.29;;
58303;Laerm;44109;52.398;7.024;2022-12-29T05:42:41;48.05;36.20;57.76;;
58303;Laerm;44109;52.398;7.024;2022-12-29T05:45:09;49.00;37.46;59.86;;
58303;Laerm;44109;52.398;7.024;2022-12-29T05:47:37;48.90;35.94;59.08;;
58303;Laerm;44109;52.398;7.024;2022-12-29T05:50:05;49.98;38.27;57.65;;
58303;Laerm;44109;52.398;7.024;2022-12-29T05:52:34;49.59;39.38;59.60;;
58303;Laerm;44109;52.398;7.024;2022-12-29T05:55:02;50.87;41.62;57.71;;
58303;Laerm;44109;52.398;7.024;2022-12-29T05:57:30;49.24;37.18;71.78;;
58303;Laerm;44109;52.398;7.024;2022-12-29T05:59:57;49.92;39.81;62.44;;
58303;Laerm;44109;52.398;7.024;2022-12-29T06:02:25;50.60;42.08;64.89;;
58303;Laerm;44109;52.398;7.024;2022-12-29T06:04:53;49.19;40.32;69.76;;
58303;Laerm;44109;52.398;7.024;2022-12-29T06:07:20;49.98;40.94;60.28;;
58303;Laerm;44109;52.398;7.024;2022-12-29T06:09:49;48.39;38.28;57.28;;
58303;Laerm;44109;52.398;7.024;2022-12-29T06:12:17;54.77;41.26;83.14;;
58303;Laerm;44109;52.398;7.024;2022-12-29T06:14:44;54.04;38.84;83.81;;
58303;Laerm;44109;52.398;7.024;2022-12-29T06:17:12;49.22;40.51;58.15;;
58303;Laerm;44109;52.398;7.024;2022-12-29T06:19:40;49.45;40.88;57.72;;
58303;Laerm;44109;52.398;7.024;2022-12-29T06:22:07;48.88;38.18;57.62;;
58303;Laerm;44109;52.398;7.024;2022-12-29T06:24:37;48.98;39.20;57.31;;
58303;Laerm;44109;52.398;7.024;2022-12-29T06:27:06;49.78;40.54;57.75;;
58303;Laerm;44109;52.398;7.024;2022-12-29T06:29:33;48.54;36.56;56.96;;
58303;Laerm;44109;52.398;7.024;2022-12-29T06:32:05;49.46;41.50;57.29;;
58303;Laerm;44109;52.398;7.024;2022-12-29T06:34:32;48.85;38.52;57.05;;
58303;Laerm;44109;52.398;7.024;2022-12-29T06:37:00;48.12;38.19;57.27;;
58303;Laerm;44109;52.398;7.024;2022-12-29T06:39:28;49.59;40.28;58.02;;
58303;Laerm;44109;52.398;7.024;2022-12-29T06:41:56;48.95;38.82;57.44;;
58303;Laerm;44109;52.398;7.024;2022-12-29T06:44:25;49.60;42.07;58.16;;
58303;Laerm;44109;52.398;7.024;2022-12-29T06:46:52;48.88;40.97;57.57;;
58303;Laerm;44109;52.398;7.024;2022-12-29T06:49:21;50.44;40.27;59.49;;
58303;Laerm;44109;52.398;7.024;2022-12-29T06:51:48;50.13;39.78;57.55;;
58303;Laerm;44109;52.398;7.024;2022-12-29T06:54:16;51.40;43.74;58.37;;
58303;Laerm;44109;52.398;7.024;2022-12-29T06:56:43;49.89;40.59;58.77;;
58303;Laerm;44109;52.398;7.024;2022-12-29T06:59:11;49.46;38.44;58.54;;
58303;Laerm;44109;52.398;7.024;2022-12-29T07:01:40;49.88;41.36;59.88;;
58303;Laerm;44109;52.398;7.024;2022-12-29T07:04:08;49.57;38.68;73.77;;
58303;Laerm;44109;52.398;7.024;2022-12-29T07:06:36;58.61;40.93;87.88;;
58303;Laerm;44109;52.398;7.024;2022-12-29T07:09:03;50.70;41.11;73.84;;
58303;Laerm;44109;52.398;7.024;2022-12-29T07:11:31;49.53;41.18;60.19;;
58303;Laerm;44109;52.398;7.024;2022-12-29T07:13:59;51.85;42.28;61.12;;
58303;Laerm;44109;52.398;7.024;2022-12-29T07:16:27;51.31;41.94;62.65;;
58303;Laerm;44109;52.398;7.024;2022-12-29T07:18:57;50.88;41.27;58.11;;
58303;Laerm;44109;52.398;7.024;2022-12-29T07:21:26;50.53;40.82;62.59;;
58303;Laerm;44109;52.398;7.024;2022-12-29T07:23:53;50.94;39.35;69.43;;
58303;Laerm;44109;52.398;7.024;2022-12-29T07:26:21;49.63;41.77;57.79;;
58303;Laerm;44109;52.398;7.024;2022-12-29T07:28:49;50.93;43.95;60.25;;
58303;Laerm;44109;52.398;7.024;2022-12-29T07:31:19;51.14;41.42;63.55;;
58303;Laerm;44109;52.398;7.024;2022-12-29T07:33:48;52.41;42.00;64.98;;
58303;Laerm;44109;52.398;7.024;2022-12-29T07:36:18;53.04;43.88;74.13;;
58303;Laerm;44109;52.398;7.024;2022-12-29T07:38:45;52.18;44.13;74.03;;
58303;Laerm;44109;52.398;7.024;2022-12-29T07:41:13;59.86;45.07;93.67;;
58303;Laerm;44109;52.398;7.024;2022-12-29T07:43:40;53.52;43.24;78.12;;
58303;Laerm;44109;52.398;7.024;2022-12-29T07:46:08;52.37;42.85;66.19;;
58303;Laerm;44109;52.398;7.024;2022-12-29T07:48:36;51.01;40.95;64.41;;
58303;Laerm;44109;52.398;7.024;2022-12-29T07:51:04;50.64;42.55;71.27;;
58303;Laerm;44109;52.398;7.024;2022-12-29T07:53:34;50.30;41.99;59.94;;
58303;Laerm;44109;52.398;7.024;2022-12-29T07:56:02;50.05;42.66;58.45;;
58303;Laerm;44109;52.398;7.024;2022-12-29T07:58:29;49.82;40.32;65.01;;
58303;Laerm;44109;52.398;7.024;2022-12-29T08:00:57;51.29;42.49;62.23;;
58303;Laerm;44109;52.398;7.024;2022-12-29T08:03:25;51.19;40.32;64.39;;
58303;Laerm;44109;52.398;7.024;2022-12-29T08:05:53;52.17;43.25;62.13;;
58303;Laerm;44109;52.398;7.024;2022-12-29T08:08:21;50.56;43.70;58.49;;
58303;Laerm;44109;52.398;7.024;2022-12-29T08:10:50;52.96;42.26;73.65;;
58303;Laerm;44109;52.398;7.024;2022-12-29T08:13:17;56.12;43.99;79.28;;
58303;Laerm;44109;52.398;7.024;2022-12-29T08:15:45;57.10;48.17;81.91;;
58303;Laerm;44109;52.398;7.024;2022-12-29T08:18:13;60.77;48.43;79.60;;
58303;Laerm;44109;52.398;7.024;2022-12-29T08:20:40;54.37;47.80;76.69;;
58303;Laerm;44109;52.398;7.024;2022-12-29T08:23:08;65.99;47.77;88.98;;
58303;Laerm;44109;52.398;7.024;2022-12-29T08:25:36;51.12;42.67;67.93;;
58303;Laerm;44109;52.398;7.024;2022-12-29T08:28:05;50.90;42.33;59.92;;
58303;Laerm;44109;52.398;7.024;2022-12-29T08:30:32;52.53;42.65;70.93;;
58303;Laerm;44109;52.398;7.024;2022-12-29T08:33:00;52.92;41.33;71.78;;
58303;Laerm;44109;52.398;7.024;2022-12-29T08:35:28;51.30;42.69;64.50;;
58303;Laerm;44109;52.398;7.024;2022-12-29T08:37:55;51.69;40.23;80.20;;
58303;Laerm;44109;52.398;7.024;2022-12-29T08:40:23;51.03;40.55;69.44;;
58303;Laerm;44109;52.398;7.024;2022-12-29T08:42:51;50.66;40.60;69.21;;
58303;Laerm;44109;52.398;7.024;2022-12-29T08:45:20;53.95;41.10;79.94;;
58303;Laerm;44109;52.398;7.024;2022-12-29T08:47:48;50.37;40.18;68.02;;
58303;Laerm;44109;52.398;7.024;2022-12-29T08:50:15;49.97;42.78;70.92;;
58303;Laerm;44109;52.398;7.024;2022-12-29T08:52:43;53.44;39.83;74.56;;
58303;Laerm;44109;52.398;7.024;2022-12-29T08:55:11;62.39;44.03;87.05;;
58303;Laerm;44109;52.398;7.024;2022-12-29T08:57:39;54.18;42.02;76.22;;
58303;Laerm;44109;52.398;7.024;2022-12-29T09:00:08;54.50;41.08;84.16;;
58303;Laerm;44109;52.398;7.024;2022-12-29T09:02:37;50.93;44.38;70.53;;
58303;Laerm;44109;52.398;7.024;2022-12-29T09:05:06;51.55;42.66;66.12;;
58303;Laerm;44109;52.398;7.024;2022-12-29T09:07:34;58.27;47.43;81.64;;
58303;Laerm;44109;52.398;7.024;2022-12-29T09:10:03;52.95;46.55;66.90;;
58303;Laerm;44109;52.398;7.024;2022-12-29T09:12:31;51.98;44.24;73.18;;
58303;Laerm;44109;52.398;7.024;2022-12-29T09:14:59;50.81;42.87;65.76;;
58303;Laerm;44109;52.398;7.024;2022-12-29T09:17:26;51.04;44.60;63.23;;
58303;Laerm;44109;52.398;7.024;2022-12-29T09:20:12;51.40;44.93;65.50;;
58303;Laerm;44109;52.398;7.024;2022-12-29T09:22:41;51.46;42.50;64.25;;
58303;Laerm;44109;52.398;7.024;2022-12-29T09:25:10;50.73;43.03;58.59;;
58303;Laerm;44109;52.398;7.024;2022-12-29T09:27:38;51.73;42.24;58.17;;
58303;Laerm;44109;52.398;7.024;2022-12-29T09:30:11;52.78;45.44;60.01;;
58303;Laerm;44109;52.398;7.024;2022-12-29T09:32:38;52.87;45.67;62.58;;
58303;Laerm;44109;52.398;7.024;2022-12-29T09:35:07;52.63;47.21;61.31;;
58303;Laerm;44109;52.398;7.024;2022-12-29T09:37:36;51.97;45.50;61.15;;
58303;Laerm;44109;52.398;7.024;2022-12-29T09:40:06;54.20;47.53;73.53;;
58303;Laerm;44109;52.398;7.024;2022-12-29T09:42:42;53.78;47.36;66.20;;
58303;Laerm;44109;52.398;7.024;2022-12-29T09:45:18;53.09;46.89;62.30;;
58303;Laerm;44109;52.398;7.024;2022-12-29T09:47:48;54.98;47.12;68.78;;
58303;Laerm;44109;52.398;7.024;2022-12-29T09:50:24;54.04;47.66;71.09;;
58303;Laerm;44109;52.398;7.024;2022-12-29T09:53:04;52.07;45.95;70.57;;
58303;Laerm;44109;52.398;7.024;2022-12-29T09:55:38;55.64;49.73;61.85;;
58303;Laerm;44109;52.398;7.024;2022-12-29T09:58:15;55.03;48.91;76.55;;
58303;Laerm;44109;52.398;7.024;2022-12-29T10:00:53;59.11;48.13;80.74;;
58303;Laerm;44109;52.398;7.024;2022-12-29T10:03:26;62.12;50.84;85.89;;
58303;Laerm;44109;52.398;7.024;2022-12-29T10:06:04;59.09;49.82;80.25;;
58303;Laerm;44109;52.398;7.024;2022-12-29T10:08:40;53.71;45.77;69.77;;
58303;Laerm;44109;52.398;7.024;2022-12-29T10:11:27;52.54;45.50;63.67;;
58303;Laerm;44109;52.398;7.024;2022-12-29T10:14:15;53.67;46.79;62.87;;
58303;Laerm;44109;52.398;7.024;2022-12-29T10:16:55;53.03;46.69;64.44;;
58303;Laerm;44109;52.398;7.024;2022-12-29T10:19:45;55.06;49.87;63.65;;
58303;Laerm;44109;52.398;7.024;2022-12-29T10:22:36;58.33;48.48;70.15;;
58303;Laerm;44109;52.398;7.024;2022-12-29T10:25:19;54.46;48.13;66.92;;
58303;Laerm;44109;52.398;7.024;2022-12-29T10:27:49;57.18;49.46;75.27;;
58303;Laerm;44109;52.398;7.024;2022-12-29T10:30:18;55.67;49.73;72.48;;
58303;Laerm;44109;52.398;7.024;2022-12-29T10:32:51;58.29;50.23;80.73;;
58303;Laerm;44109;52.398;7.024;2022-12-29T10:35:24;53.41;47.51;71.19;;
58303;Laerm;44109;52.398;7.024;2022-12-29T10:38:01;53.32;44.91;63.10;;
58303;Laerm;44109;52.398;7.024;2022-12-29T10:40:41;58.05;49.74;68.52;;
58303;Laerm;44109;52.398;7.024;2022-12-29T10:43:24;55.18;47.87;68.26;;
58303;Laerm;44109;52.398;7.024;2022-12-29T10:45:54;54.03;48.45;67.37;;
58303;Laerm;44109;52.398;7.024;2022-12-29T10:48:29;57.13;49.14;71.35;;
58303;Laerm;44109;52.398;7.024;2022-12-29T10:51:00;52.99;46.71;64.80;;
58303;Laerm;44109;52.398;7.024;2022-12-29T10:53:38;53.10;47.41;66.46;;
58303;Laerm;44109;52.398;7.024;2022-12-29T10:56:23;55.47;48.55;66.99;;
58303;Laerm;44109;52.398;7.024;2022-12-29T10:58:57;55.05;47.71;69.33;;
58303;Laerm;44109;52.398;7.024;2022-12-29T11:01:32;54.70;48.30;72.28;;
58303;Laerm;44109;52.398;7.024;2022-12-29T11:04:10;58.64;48.82;87.30;;
58303;Laerm;44109;52.398;7.024;2022-12-29T11:06:49;55.10;46.96;70.47;;
58303;Laerm;44109;52.398;7.024;2022-12-29T11:09:26;54.34;47.69;63.33;;
58303;Laerm;44109;52.398;7.024;2022-12-29T11:11:56;55.24;49.26;70.98;;
58303;Laerm;44109;52.398;7.024;2022-12-29T11:14:28;53.69;46.82;67.14;;
58303;Laerm;44109;52.398;7.024;2022-12-29T11:16:58;59.00;51.25;77.56;;
58303;Laerm;44109;52.398;7.024;2022-12-29T11:19:29;56.68;48.45;71.41;;
58303;Laerm;44109;52.398;7.024;2022-12-29T11:22:14;53.40;48.17;69.12;;
58303;Laerm;44109;52.398;7.024;2022-12-29T11:24:49;53.39;47.40;66.05;;
58303;Laerm;44109;52.398;7.024;2022-12-29T11:27:21;57.45;47.41;71.66;;
58303;Laerm;44109;52.398;7.024;2022-12-29T11:29:50;55.56;49.06;69.48;;
58303;Laerm;44109;52.398;7.024;2022-12-29T11:32:22;56.24;46.84;78.78;;
58303;Laerm;44109;52.398;7.024;2022-12-29T11:34:50;55.56;47.91;76.33;;
58303;Laerm;44109;52.398;7.024;2022-12-29T11:37:25;57.82;50.57;72.47;;
58303;Laerm;44109;52.398;7.024;2022-12-29T11:39:57;55.55;48.68;70.25;;
58303;Laerm;44109;52.398;7.024;2022-12-29T11:42:35;56.01;48.84;76.62;;
58303;Laerm;44109;52.398;7.024;2022-12-29T11:45:09;51.97;45.31;64.46;;
58303;Laerm;44109;52.398;7.024;2022-12-29T11:47:45;54.20;46.82;68.76;;
58303;Laerm;44109;52.398;7.024;2022-12-29T11:50:19;57.12;47.10;77.90;;
58303;Laerm;44109;52.398;7.024;2022-12-29T11:52:50;55.32;47.36;72.11;;
58303;Laerm;44109;52.398;7.024;2022-12-29T11:55:26;56.53;50.29;69.89;;
58303;Laerm;44109;52.398;7.024;2022-12-29T11:58:00;58.47;49.56;75.66;;
58303;Laerm;44109;52.398;7.024;2022-12-29T12:00:34;58.18;47.37;76.92;;
58303;Laerm;44109;52.398;7.024;2022-12-29T12:03:16;58.95;49.87;77.31;;
58303;Laerm;44109;52.398;7.024;2022-12-29T12:05:50;54.49;49.97;68.17;;
58303;Laerm;44109;52.398;7.024;2022-12-29T12:08:32;54.86;50.23;68.21;;
58303;Laerm;44109;52.398;7.024;2022-12-29T12:11:08;57.53;51.38;76.10;;
58303;Laerm;44109;52.398;7.024;2022-12-29T12:13:50;53.16;45.69;68.43;;
58303;Laerm;44109;52.398;7.024;2022-12-29T12:16:33;54.24;47.42;68.61;;
58303;Laerm;44109;52.398;7.024;2022-12-29T12:19:14;55.12;48.24;73.36;;
58303;Laerm;44109;52.398;7.024;2022-12-29T12:21:50;53.53;46.80;64.73;;
58303;Laerm;44109;52.398;7.024;2022-12-29T12:24:41;55.79;48.08;73.01;;
58303;Laerm;44109;52.398;7.024;2022-12-29T12:27:19;54.99;47.81;69.93;;
58303;Laerm;44109;52.398;7.024;2022-12-29T12:29:58;53.65;44.32;67.85;;
58303;Laerm;44109;52.398;7.024;2022-12-29T12:32:35;53.17;46.46;64.67;;
58303;Laerm;44109;52.398;7.024;2022-12-29T12:35:13;53.95;48.05;68.32;;
58303;Laerm;44109;52.398;7.024;2022-12-29T12:38:00;54.86;47.49;66.07;;
58303;Laerm;44109;52.398;7.024;2022-12-29T12:40:45;53.40;46.84;72.57;;
58303;Laerm;44109;52.398;7.024;2022-12-29T12:43:46;55.14;46.02;74.75;;
58303;Laerm;44109;52.398;7.024;2022-12-29T12:46:52;52.88;44.38;71.81;;
58303;Laerm;44109;52.398;7.024;2022-12-29T12:52:54;52.53;45.57;70.09;;
58303;Laerm;44109;52.398;7.024;2022-12-29T12:55:46;53.11;45.68;68.38;;
58303;Laerm;44109;52.398;7.024;2022-12-29T12:58:31;51.42;43.14;64.84;;
58303;Laerm;44109;52.398;7.024;2022-12-29T13:01:18;51.89;44.47;66.66;;
58303;Laerm;44109;52.398;7.024;2022-12-29T13:04:18;50.87;44.69;61.64;;
58303;Laerm;44109;52.398;7.024;2022-12-29T13:07:07;54.01;44.87;70.42;;
58303;Laerm;44109;52.398;7.024;2022-12-29T13:09:59;51.68;44.31;65.77;;
58303;Laerm;44109;52.398;7.024;2022-12-29T13:12:42;51.39;45.23;64.16;;
58303;Laerm;44109;52.398;7.024;2022-12-29T13:15:33;51.36;45.75;62.18;;
58303;Laerm;44109;52.398;7.024;2022-12-29T13:18:20;50.99;42.16;59.10;;
58303;Laerm;44109;52.398;7.024;2022-12-29T13:21:03;51.86;45.05;63.87;;
58303;Laerm;44109;52.398;7.024;2022-12-29T13:23:40;50.86;43.69;61.44;;
58303;Laerm;44109;52.398;7.024;2022-12-29T13:26:17;52.90;45.61;71.32;;
58303;Laerm;44109;52.398;7.024;2022-12-29T13:28:56;52.45;45.18;70.99;;
58303;Laerm;44109;52.398;7.024;2022-12-29T13:31:36;56.53;45.68;75.12;;
58303;Laerm;44109;52.398;7.024;2022-12-29T13:34:28;53.82;44.90;66.95;;
58303;Laerm;44109;52.398;7.024;2022-12-29T13:37:04;52.84;44.68;68.34;;
58303;Laerm;44109;52.398;7.024;2022-12-29T13:39:39;51.50;45.57;60.95;;
58303;Laerm;44109;52.398;7.024;2022-12-29T13:42:09;51.19;45.00;67.11;;
58303;Laerm;44109;52.398;7.024;2022-12-29T13:44:46;50.11;44.01;61.14;;
58303;Laerm;44109;52.398;7.024;2022-12-29T13:47:26;51.27;44.23;64.31;;
58303;Laerm;44109;52.398;7.024;2022-12-29T13:49:58;50.80;44.37;58.55;;
58303;Laerm;44109;52.398;7.024;2022-12-29T13:52:37;50.15;42.49;58.16;;
58303;Laerm;44109;52.398;7.024;2022-12-29T13:55:24;49.98;42.99;73.39;;
58303;Laerm;44109;52.398;7.024;2022-12-29T13:58:03;50.33;44.67;60.06;;
58303;Laerm;44109;52.398;7.024;2022-12-29T14:00:44;50.42;41.38;67.28;;
58303;Laerm;44109;52.398;7.024;2022-12-29T14:03:44;50.28;44.29;67.79;;
58303;Laerm;44109;52.398;7.024;2022-12-29T14:06:20;50.77;43.86;66.67;;
58303;Laerm;44109;52.398;7.024;2022-12-29T14:08:53;50.66;42.75;61.90;;
58303;Laerm;44109;52.398;7.024;2022-12-29T14:11:30;50.83;44.11;64.40;;
58303;Laerm;44109;52.398;7.024;2022-12-29T14:13:59;51.02;44.51;60.33;;
58303;Laerm;44109;52.398;7.024;2022-12-29T14:16:37;50.02;41.40;60.51;;
58303;Laerm;44109;52.398;7.024;2022-12-29T14:19:13;50.37;42.70;63.63;;
58303;Laerm;44109;52.398;7.024;2022-12-29T14:21:54;50.42;42.70;70.11;;
58303;Laerm;44109;52.398;7.024;2022-12-29T14:24:44;50.52;43.85;63.24;;